Time;durP1;ratioP1;P1;durP2;ratioP2;P2;SDS_P1;SDS_P2;PMS_P1;PMS_P2;Temp;Humidity;BMP_temperature;BMP_pressure;BME280_temperature;BME280_humidity;BME280_pressure;Samples;Min_cycle;Max_cycle;Signal;HPM_P1;HPM_P2
2024/01/13 00:01:56;;;;;;;14.03;9.07;;;;;;;;;;5012770;28;20205;-68
2024/01/13 00:04:21;;;;;;;12.77;8.40;;;;;;;;;;5012921;28;20246;-68
2024/01/13 00:06:46;;;;;;;12.00;8.47;;;;;;;;;;5012501;28;20185;-69
2024/01/13 00:09:12;;;;;;;13.20;9.00;;;;;;;;;;5010134;28;20174;-67
2024/01/13 00:11:37;;;;;;;11.57;8.23;;;;;;;;;;5009378;28;20612;-69
2024/01/13 00:14:02;;;;;;;10.67;7.43;;;;;;;;;;5011632;28;20267;-68
2024/01/13 00:16:28;;;;;;;10.83;7.47;;;;;;;;;;5009630;28;20225;-68
2024/01/13 00:18:53;;;;;;;9.37;6.60;;;;;;;;;;5012145;28;20171;-68
2024/01/13 00:21:18;;;;;;;9.70;7.00;;;;;;;;;;5010809;28;20452;-68
2024/01/13 00:23:43;;;;;;;10.80;6.63;;;;;;;;;;5012531;28;20213;-69
2024/01/13 00:26:08;;;;;;;11.40;6.83;;;;;;;;;;5011703;28;20582;-68
2024/01/13 00:28:34;;;;;;;10.40;6.90;;;;;;;;;;5012026;28;20254;-69
2024/01/13 00:30:59;;;;;;;10.50;7.10;;;;;;;;;;5011754;28;20228;-68
2024/01/13 00:33:24;;;;;;;9.63;6.73;;;;;;;;;;5008842;28;20187;-69
2024/01/13 00:35:50;;;;;;;10.07;6.53;;;;;;;;;;5011435;28;20330;-68
2024/01/13 00:38:15;;;;;;;10.47;7.23;;;;;;;;;;5012433;28;20253;-68
2024/01/13 00:40:41;;;;;;;11.03;7.27;;;;;;;;;;5012471;28;20179;-69
2024/01/13 00:43:06;;;;;;;11.13;7.27;;;;;;;;;;4994265;28;20212;-69
2024/01/13 00:45:31;;;;;;;13.33;7.87;;;;;;;;;;5011814;28;20198;-69
2024/01/13 00:47:56;;;;;;;13.67;9.03;;;;;;;;;;5012341;28;20807;-69
2024/01/13 00:50:22;;;;;;;12.60;8.70;;;;;;;;;;5012323;28;20270;-68
2024/01/13 00:52:47;;;;;;;15.43;9.30;;;;;;;;;;5011660;28;20245;-69
2024/01/13 00:55:12;;;;;;;14.43;8.60;;;;;;;;;;5007556;28;20203;-69
2024/01/13 00:57:37;;;;;;;13.50;9.43;;;;;;;;;;5013379;28;20204;-68
2024/01/13 01:00:03;;;;;;;13.40;8.13;;;;;;;;;;4994908;28;20669;-69
2024/01/13 01:02:28;;;;;;;15.33;9.50;;;;;;;;;;5010523;28;20202;-68
2024/01/13 01:04:53;;;;;;;13.60;9.90;;;;;;;;;;5012147;28;20191;-68
2024/01/13 01:07:18;;;;;;;16.47;9.47;;;;;;;;;;5013174;28;20179;-69
2024/01/13 01:09:44;;;;;;;12.13;8.87;;;;;;;;;;5013266;28;20174;-68
2024/01/13 01:12:09;;;;;;;16.67;9.83;;;;;;;;;;5008314;28;20686;-67
2024/01/13 01:14:35;;;;;;;12.07;8.50;;;;;;;;;;5009897;28;20369;-69
2024/01/13 01:17:00;;;;;;;14.57;9.43;;;;;;;;;;5012722;28;20779;-68
2024/01/13 01:19:25;;;;;;;12.23;8.97;;;;;;;;;;5014145;28;20187;-68
2024/01/13 01:21:50;;;;;;;16.67;9.20;;;;;;;;;;5011051;28;20666;-69
2024/01/13 01:24:16;;;;;;;16.93;10.23;;;;;;;;;;5011493;28;20209;-69
2024/01/13 01:26:41;;;;;;;15.77;9.67;;;;;;;;;;5011267;28;20175;-69
2024/01/13 01:29:06;;;;;;;14.70;9.70;;;;;;;;;;5011759;28;20171;-68
2024/01/13 01:31:31;;;;;;;15.23;11.17;;;;;;;;;;5007506;28;20190;-69
2024/01/13 01:33:57;;;;;;;14.83;10.27;;;;;;;;;;4988704;28;20185;-69
2024/01/13 01:36:22;;;;;;;17.73;10.20;;;;;;;;;;5006545;28;20270;-69
2024/01/13 01:38:47;;;;;;;13.40;10.43;;;;;;;;;;5009489;28;20274;-69
2024/01/13 01:41:16;;;;;;;16.27;10.50;;;;;;;;;;5010402;28;20179;-67
2024/01/13 01:43:42;;;;;;;18.87;12.23;;;;;;;;;;5007794;28;20217;-69
2024/01/13 01:46:08;;;;;;;17.47;12.00;;;;;;;;;;4990086;28;20203;-68
2024/01/13 01:48:35;;;;;;;20.30;11.37;;;;;;;;;;5010291;28;20183;-68
2024/01/13 01:51:00;;;;;;;18.80;12.50;;;;;;;;;;4996557;28;20181;-69
2024/01/13 01:53:26;;;;;;;20.57;12.80;;;;;;;;;;4997365;28;20187;-69
2024/01/13 01:55:51;;;;;;;18.37;11.57;;;;;;;;;;5011551;28;20282;-69
2024/01/13 01:58:17;;;;;;;19.27;12.27;;;;;;;;;;5010973;28;20183;-69
2024/01/13 02:00:42;;;;;;;21.97;12.57;;;;;;;;;;5011071;28;20171;-69
2024/01/13 02:03:07;;;;;;;24.43;13.93;;;;;;;;;;5010237;28;20274;-68
2024/01/13 02:05:34;;;;;;;20.80;13.43;;;;;;;;;;5010236;28;20203;-69
2024/01/13 02:07:59;;;;;;;19.50;12.57;;;;;;;;;;5005757;28;20639;-69
2024/01/13 02:10:24;;;;;;;19.43;12.53;;;;;;;;;;5009910;28;20221;-69
2024/01/13 02:12:49;;;;;;;20.33;13.93;;;;;;;;;;5006928;28;20175;-69
2024/01/13 02:15:15;;;;;;;20.83;13.40;;;;;;;;;;5077422;23;20233;-72
2024/01/13 02:17:40;;;;;;;19.47;12.47;;;;;;;;;;5050843;28;20295;-72
2024/01/13 02:20:06;;;;;;;23.37;14.27;;;;;;;;;;5051753;28;20181;-72
2024/01/13 02:22:32;;;;;;;24.47;14.50;;;;;;;;;;5051403;28;20217;-72
2024/01/13 02:24:57;;;;;;;26.20;15.83;;;;;;;;;;5049967;28;20201;-72
2024/01/13 02:27:23;;;;;;;30.60;15.80;;;;;;;;;;5034016;28;20186;-72
2024/01/13 02:29:48;;;;;;;24.40;15.37;;;;;;;;;;5050992;28;20185;-72
2024/01/13 02:32:13;;;;;;;25.87;15.10;;;;;;;;;;5053586;28;20223;-72
2024/01/13 02:34:38;;;;;;;29.00;16.63;;;;;;;;;;5052430;28;20223;-71
2024/01/13 02:37:04;;;;;;;24.77;15.33;;;;;;;;;;5051466;28;20177;-72
2024/01/13 02:39:29;;;;;;;27.60;16.63;;;;;;;;;;5032314;28;20256;-72
2024/01/13 02:41:54;;;;;;;30.83;16.63;;;;;;;;;;5049360;28;20205;-72
2024/01/13 02:44:19;;;;;;;27.23;16.03;;;;;;;;;;5050032;28;20209;-72
2024/01/13 02:46:44;;;;;;;28.00;16.93;;;;;;;;;;5044205;28;20393;-71
2024/01/13 02:49:10;;;;;;;28.10;16.37;;;;;;;;;;5048130;28;20197;-71
2024/01/13 02:51:35;;;;;;;24.57;14.77;;;;;;;;;;5057370;28;20260;-72
2024/01/13 02:54:00;;;;;;;26.63;15.40;;;;;;;;;;5050250;28;20290;-72
2024/01/13 02:56:26;;;;;;;23.23;14.50;;;;;;;;;;5049878;28;20189;-72
2024/01/13 02:58:51;;;;;;;23.13;14.87;;;;;;;;;;5046539;28;20166;-72
2024/01/13 03:01:17;;;;;;;25.80;14.57;;;;;;;;;;5049953;28;20174;-72
2024/01/13 03:03:42;;;;;;;20.80;13.40;;;;;;;;;;5050264;28;20201;-72
2024/01/13 03:06:08;;;;;;;21.60;13.97;;;;;;;;;;5045545;28;20193;-72
2024/01/13 03:08:34;;;;;;;25.43;15.03;;;;;;;;;;5031256;28;20645;-72
2024/01/13 03:10:59;;;;;;;23.60;14.27;;;;;;;;;;5048896;28;20180;-72
2024/01/13 03:13:24;;;;;;;22.70;14.57;;;;;;;;;;5050194;28;20180;-72
2024/01/13 03:15:49;;;;;;;22.97;14.20;;;;;;;;;;5050080;28;20751;-72
2024/01/13 03:18:14;;;;;;;24.07;15.00;;;;;;;;;;5050005;28;20260;-72
2024/01/13 03:20:40;;;;;;;24.17;14.67;;;;;;;;;;5049905;28;20181;-72
2024/01/13 03:23:05;;;;;;;23.33;13.60;;;;;;;;;;5049144;28;20861;-72
2024/01/13 03:25:30;;;;;;;21.90;12.87;;;;;;;;;;5046678;28;20202;-72
2024/01/13 03:27:55;;;;;;;20.37;13.03;;;;;;;;;;5052129;28;20177;-71
2024/01/13 03:30:20;;;;;;;24.47;13.30;;;;;;;;;;5053589;28;20594;-71
2024/01/13 03:32:45;;;;;;;19.80;12.23;;;;;;;;;;5053662;28;20189;-71
2024/01/13 03:35:11;;;;;;;22.27;12.33;;;;;;;;;;5053033;28;20229;-72
2024/01/13 03:37:36;;;;;;;18.63;11.80;;;;;;;;;;5053375;28;20174;-72
2024/01/13 03:40:02;;;;;;;19.27;11.13;;;;;;;;;;5051440;28;20189;-72
2024/01/13 03:42:27;;;;;;;21.53;12.27;;;;;;;;;;5030479;28;20198;-71
2024/01/13 03:44:54;;;;;;;21.83;12.13;;;;;;;;;;5051514;28;20783;-72
2024/01/13 03:47:19;;;;;;;21.13;11.60;;;;;;;;;;5053187;28;20182;-72
2024/01/13 03:49:44;;;;;;;21.93;12.30;;;;;;;;;;5053008;28;20657;-71
2024/01/13 03:52:10;;;;;;;20.13;11.90;;;;;;;;;;5053203;28;20185;-71
2024/01/13 03:54:35;;;;;;;22.17;12.73;;;;;;;;;;5051468;28;20184;-72
2024/01/13 03:57:00;;;;;;;17.20;11.00;;;;;;;;;;5052884;28;20174;-73
2024/01/13 03:59:26;;;;;;;17.70;10.53;;;;;;;;;;5035117;28;20724;-71
2024/01/13 04:01:51;;;;;;;18.37;10.77;;;;;;;;;;5034910;28;20178;-72
2024/01/13 04:04:16;;;;;;;18.87;11.17;;;;;;;;;;5049340;28;20186;-72
2024/01/13 04:06:41;;;;;;;19.47;11.17;;;;;;;;;;5051789;28;20198;-72
2024/01/13 04:09:07;;;;;;;18.90;10.87;;;;;;;;;;5051799;28;20633;-72
2024/01/13 04:11:33;;;;;;;18.80;10.83;;;;;;;;;;5052482;28;20197;-72
2024/01/13 04:13:58;;;;;;;16.30;10.57;;;;;;;;;;5052750;28;20625;-72
2024/01/13 04:16:23;;;;;;;16.40;9.30;;;;;;;;;;5051125;28;20799;-72
2024/01/13 04:18:48;;;;;;;15.30;9.70;;;;;;;;;;5052409;28;20647;-72
2024/01/13 04:21:14;;;;;;;16.17;10.27;;;;;;;;;;5049915;28;20186;-72
2024/01/13 04:23:39;;;;;;;19.07;10.80;;;;;;;;;;5049125;28;20209;-72
2024/01/13 04:26:05;;;;;;;21.67;9.63;;;;;;;;;;5051650;28;20217;-72
2024/01/13 04:28:30;;;;;;;14.87;9.17;;;;;;;;;;5033741;28;20233;-72
2024/01/13 04:30:56;;;;;;;14.90;10.07;;;;;;;;;;5051646;28;20194;-72
2024/01/13 04:33:21;;;;;;;15.63;9.30;;;;;;;;;;5052503;28;20268;-73
2024/01/13 04:35:46;;;;;;;14.80;10.00;;;;;;;;;;5051436;28;20218;-73
2024/01/13 04:38:11;;;;;;;14.73;9.47;;;;;;;;;;5048206;28;20189;-73
2024/01/13 04:40:37;;;;;;;14.77;9.07;;;;;;;;;;5031385;28;20175;-72
2024/01/13 04:43:05;;;;;;;17.63;9.17;;;;;;;;;;5048481;28;20201;-71
2024/01/13 04:45:30;;;;;;;13.67;9.17;;;;;;;;;;5051643;28;20259;-73
2024/01/13 04:47:56;;;;;;;14.77;9.60;;;;;;;;;;5052106;28;20264;-72
2024/01/13 04:50:21;;;;;;;15.13;9.07;;;;;;;;;;5052355;28;20178;-72
2024/01/13 04:52:46;;;;;;;15.97;9.27;;;;;;;;;;5032999;28;20273;-72
2024/01/13 04:55:12;;;;;;;15.43;8.80;;;;;;;;;;5050086;28;20204;-72
2024/01/13 04:57:37;;;;;;;14.33;8.37;;;;;;;;;;5049252;28;20177;-72
2024/01/13 05:00:04;;;;;;;19.03;9.90;;;;;;;;;;5051694;28;20645;-72
2024/01/13 05:02:29;;;;;;;13.63;8.90;;;;;;;;;;5051611;28;20814;-72
2024/01/13 05:04:55;;;;;;;12.63;8.13;;;;;;;;;;5032830;28;20292;-72
2024/01/13 05:07:20;;;;;;;16.23;8.50;;;;;;;;;;5033320;28;20177;-72
2024/01/13 05:09:46;;;;;;;13.50;8.23;;;;;;;;;;5050615;28;20663;-71
2024/01/13 05:12:11;;;;;;;12.80;8.17;;;;;;;;;;5051365;28;20231;-72
2024/01/13 05:14:36;;;;;;;15.27;9.33;;;;;;;;;;5033205;28;20177;-72
2024/01/13 05:17:02;;;;;;;16.93;8.47;;;;;;;;;;5047867;28;20822;-72
2024/01/13 05:19:27;;;;;;;15.13;8.63;;;;;;;;;;5051199;28;20178;-72
2024/01/13 05:21:53;;;;;;;14.47;8.23;;;;;;;;;;5050601;28;20192;-72
2024/01/13 05:24:18;;;;;;;14.07;7.70;;;;;;;;;;5051840;28;20712;-72
2024/01/13 05:26:43;;;;;;;13.63;7.87;;;;;;;;;;5050282;28;20190;-72
2024/01/13 05:29:08;;;;;;;15.13;8.50;;;;;;;;;;5048057;28;20174;-71
2024/01/13 05:31:33;;;;;;;14.40;8.30;;;;;;;;;;5051174;28;20174;-73
2024/01/13 05:33:59;;;;;;;14.30;8.83;;;;;;;;;;5050863;28;20170;-72
2024/01/13 05:36:24;;;;;;;16.00;8.57;;;;;;;;;;5050006;28;20283;-72
2024/01/13 05:38:49;;;;;;;16.63;9.50;;;;;;;;;;5032173;28;20178;-72
2024/01/13 05:41:14;;;;;;;16.70;8.93;;;;;;;;;;5038191;28;20461;-71
2024/01/13 05:43:40;;;;;;;13.80;8.70;;;;;;;;;;5051785;28;20355;-72
2024/01/13 05:46:05;;;;;;;15.97;8.47;;;;;;;;;;5050679;28;20662;-72
2024/01/13 05:48:30;;;;;;;15.33;8.57;;;;;;;;;;5049903;28;20174;-72
2024/01/13 05:50:55;;;;;;;16.23;8.80;;;;;;;;;;5051139;28;20180;-72
2024/01/13 05:53:20;;;;;;;15.33;9.07;;;;;;;;;;5030859;28;20189;-72
2024/01/13 05:55:46;;;;;;;15.10;8.90;;;;;;;;;;5051065;28;20243;-72
2024/01/13 05:58:11;;;;;;;17.07;8.60;;;;;;;;;;5048367;28;20177;-71
2024/01/13 06:00:36;;;;;;;13.10;7.40;;;;;;;;;;5048924;28;20181;-71
2024/01/13 06:03:02;;;;;;;15.13;8.70;;;;;;;;;;5050595;28;20211;-72
2024/01/13 06:05:28;;;;;;;15.97;8.63;;;;;;;;;;5050819;28;20255;-71
2024/01/13 06:07:53;;;;;;;16.93;7.90;;;;;;;;;;5049624;28;20181;-72
2024/01/13 06:10:18;;;;;;;16.10;7.70;;;;;;;;;;5050721;28;20177;-72
2024/01/13 06:12:45;;;;;;;18.40;8.03;;;;;;;;;;5050232;28;20193;-72
2024/01/13 06:15:10;;;;;;;15.77;8.90;;;;;;;;;;5050130;28;20695;-72
2024/01/13 06:17:35;;;;;;;14.53;7.63;;;;;;;;;;5028686;28;20185;-72
2024/01/13 06:20:00;;;;;;;13.80;8.00;;;;;;;;;;5050265;28;20196;-72
2024/01/13 06:22:25;;;;;;;17.80;8.07;;;;;;;;;;5050393;28;20200;-72
2024/01/13 06:24:51;;;;;;;14.40;7.93;;;;;;;;;;5048789;28;20216;-72
2024/01/13 06:27:16;;;;;;;17.03;7.73;;;;;;;;;;5032357;28;20181;-71
2024/01/13 06:29:41;;;;;;;17.60;8.73;;;;;;;;;;5050581;28;20169;-71
2024/01/13 06:32:06;;;;;;;15.10;8.50;;;;;;;;;;5051034;28;20287;-72
2024/01/13 06:34:31;;;;;;;16.30;8.43;;;;;;;;;;5051616;28;20181;-72
2024/01/13 06:36:57;;;;;;;19.70;9.63;;;;;;;;;;5044234;28;20184;-72
2024/01/13 06:39:22;;;;;;;17.63;8.87;;;;;;;;;;5049705;28;20177;-72
2024/01/13 06:41:47;;;;;;;17.40;8.50;;;;;;;;;;5047377;28;20207;-72
2024/01/13 06:44:12;;;;;;;20.63;10.17;;;;;;;;;;5050395;28;20198;-72
2024/01/13 06:46:37;;;;;;;16.77;9.00;;;;;;;;;;5049858;28;20190;-72
2024/01/13 06:49:03;;;;;;;16.63;9.30;;;;;;;;;;5050232;28;20177;-72
2024/01/13 06:51:28;;;;;;;15.83;8.63;;;;;;;;;;5049955;28;20181;-72
2024/01/13 06:53:53;;;;;;;19.27;9.77;;;;;;;;;;5043581;28;20672;-72
2024/01/13 06:56:18;;;;;;;17.70;10.10;;;;;;;;;;5048795;28;20201;-72
2024/01/13 06:58:44;;;;;;;17.13;8.47;;;;;;;;;;5046913;28;20560;-72
2024/01/13 07:01:12;;;;;;;18.77;9.23;;;;;;;;;;5047302;28;20193;-71
2024/01/13 07:03:37;;;;;;;20.23;10.43;;;;;;;;;;5036023;28;20227;-72
2024/01/13 07:06:03;;;;;;;21.80;8.90;;;;;;;;;;5053321;28;20657;-72
2024/01/13 07:08:29;;;;;;;15.27;7.83;;;;;;;;;;5052738;28;20186;-72
2024/01/13 07:10:54;;;;;;;15.17;7.83;;;;;;;;;;5053900;28;20215;-72
2024/01/13 07:13:20;;;;;;;13.90;7.53;;;;;;;;;;5054174;28;20620;-72
2024/01/13 07:15:45;;;;;;;13.67;7.67;;;;;;;;;;5053409;28;20205;-72
2024/01/13 07:18:10;;;;;;;13.10;6.93;;;;;;;;;;5053888;28;20201;-72
2024/01/13 07:20:35;;;;;;;12.63;7.17;;;;;;;;;;5034751;28;20225;-71
2024/01/13 07:23:00;;;;;;;13.50;7.07;;;;;;;;;;5053382;28;20201;-72
2024/01/13 07:25:26;;;;;;;11.80;6.73;;;;;;;;;;5050836;28;20269;-72
2024/01/13 07:27:51;;;;;;;10.57;5.93;;;;;;;;;;5051831;28;20177;-72
2024/01/13 07:30:16;;;;;;;9.53;4.73;;;;;;;;;;5053897;28;20248;-71
2024/01/13 07:32:42;;;;;;;8.20;4.60;;;;;;;;;;5053503;28;20607;-73
2024/01/13 07:35:07;;;;;;;7.33;4.57;;;;;;;;;;5035230;28;20289;-72
2024/01/13 07:37:33;;;;;;;9.27;4.67;;;;;;;;;;5048338;28;20182;-72
2024/01/13 07:39:58;;;;;;;9.87;5.00;;;;;;;;;;5034878;28;20190;-72
2024/01/13 07:42:23;;;;;;;9.70;5.37;;;;;;;;;;5051855;28;20201;-72
2024/01/13 07:44:48;;;;;;;9.53;4.73;;;;;;;;;;5052692;28;20368;-72
2024/01/13 07:47:13;;;;;;;6.07;4.60;;;;;;;;;;5053155;28;20169;-72
2024/01/13 07:49:39;;;;;;;7.00;4.50;;;;;;;;;;5055876;28;20166;-72
2024/01/13 07:52:04;;;;;;;8.63;5.47;;;;;;;;;;5053444;28;20552;-72
2024/01/13 07:54:29;;;;;;;10.07;5.63;;;;;;;;;;5052746;28;20667;-72
2024/01/13 07:56:54;;;;;;;10.97;6.27;;;;;;;;;;5048640;28;20203;-72
2024/01/13 07:59:21;;;;;;;9.10;6.30;;;;;;;;;;5052889;28;20170;-72
2024/01/13 08:01:46;;;;;;;9.63;6.50;;;;;;;;;;5034067;28;20185;-72
2024/01/13 08:04:13;;;;;;;9.17;6.43;;;;;;;;;;5049760;28;20209;-71
2024/01/13 08:06:38;;;;;;;11.77;7.47;;;;;;;;;;5047615;28;20280;-71
2024/01/13 08:09:04;;;;;;;11.60;7.30;;;;;;;;;;5051448;28;20260;-72
2024/01/13 08:11:29;;;;;;;11.60;7.10;;;;;;;;;;5051672;28;20177;-72
2024/01/13 08:13:56;;;;;;;12.70;7.87;;;;;;;;;;5052660;28;20182;-71
2024/01/13 08:16:21;;;;;;;11.37;7.53;;;;;;;;;;5030446;28;20304;-70
2024/01/13 08:18:46;;;;;;;14.13;8.40;;;;;;;;;;5055375;28;20216;-70
2024/01/13 08:21:12;;;;;;;13.10;8.43;;;;;;;;;;5054920;28;20261;-70
2024/01/13 08:23:37;;;;;;;13.33;8.73;;;;;;;;;;5053407;28;20259;-72
2024/01/13 08:26:03;;;;;;;14.53;8.80;;;;;;;;;;5054036;28;20193;-70
2024/01/13 08:28:28;;;;;;;15.23;8.93;;;;;;;;;;5056432;28;20214;-69
2024/01/13 08:30:54;;;;;;;12.70;8.90;;;;;;;;;;5052589;28;20177;-70
2024/01/13 08:33:19;;;;;;;12.73;8.10;;;;;;;;;;5035924;28;20231;-70
2024/01/13 08:35:44;;;;;;;15.37;7.93;;;;;;;;;;5048902;28;20254;-70
2024/01/13 08:38:09;;;;;;;18.07;7.47;;;;;;;;;;5048623;28;20239;-69
2024/01/13 08:40:35;;;;;;;9.87;6.97;;;;;;;;;;5048995;28;20266;-70
2024/01/13 08:43:02;;;;;;;10.37;7.10;;;;;;;;;;5032024;28;20693;-70
2024/01/13 08:45:29;;;;;;;12.70;6.47;;;;;;;;;;5051889;28;20201;-70
2024/01/13 08:47:58;;;;;;;10.57;5.73;;;;;;;;;;5048461;28;20170;-70
2024/01/13 08:50:23;;;;;;;10.30;6.60;;;;;;;;;;5047995;28;20188;-71
2024/01/13 08:52:51;;;;;;;11.10;6.43;;;;;;;;;;5046108;28;20641;-70
2024/01/13 08:55:17;;;;;;;10.00;5.83;;;;;;;;;;5029028;28;20201;-74
2024/01/13 08:57:42;;;;;;;10.40;6.43;;;;;;;;;;5051181;28;20239;-70
2024/01/13 09:00:08;;;;;;;8.77;5.13;;;;;;;;;;5049972;28;20606;-70
2024/01/13 09:02:33;;;;;;;12.03;6.30;;;;;;;;;;5051649;28;20201;-70
2024/01/13 09:04:58;;;;;;;12.13;6.33;;;;;;;;;;5036631;28;20562;-70
2024/01/13 09:07:24;;;;;;;10.27;6.20;;;;;;;;;;5053195;28;20174;-71
2024/01/13 09:09:49;;;;;;;13.70;6.90;;;;;;;;;;5051173;28;20251;-71
2024/01/13 09:12:14;;;;;;;10.50;6.30;;;;;;;;;;5048664;28;20170;-70
2024/01/13 09:14:39;;;;;;;12.87;7.30;;;;;;;;;;5049683;28;20265;-70
2024/01/13 09:17:05;;;;;;;11.73;6.43;;;;;;;;;;5053514;28;20261;-71
2024/01/13 09:19:30;;;;;;;12.33;6.83;;;;;;;;;;5057375;28;20166;-69
2024/01/13 09:21:55;;;;;;;9.83;5.50;;;;;;;;;;5050117;28;20184;-71
2024/01/13 09:24:20;;;;;;;10.97;6.27;;;;;;;;;;5051845;28;20197;-70
2024/01/13 09:26:46;;;;;;;12.13;6.07;;;;;;;;;;5028917;28;20719;-71
2024/01/13 09:29:12;;;;;;;10.63;6.17;;;;;;;;;;5050892;28;20173;-71
2024/01/13 09:31:37;;;;;;;12.53;7.13;;;;;;;;;;5051612;28;20200;-71
2024/01/13 09:34:02;;;;;;;13.13;6.97;;;;;;;;;;5051676;28;20193;-70
2024/01/13 09:36:27;;;;;;;9.77;5.97;;;;;;;;;;5050711;28;20573;-70
2024/01/13 09:38:53;;;;;;;12.90;6.53;;;;;;;;;;5051614;28;20563;-71
2024/01/13 09:41:18;;;;;;;14.57;6.93;;;;;;;;;;5042387;28;20253;-70
2024/01/13 09:43:52;;;;;;;12.13;6.07;;;;;;;;;;5050128;28;20263;-71
2024/01/13 09:46:17;;;;;;;12.63;7.17;;;;;;;;;;5050403;28;20639;-71
2024/01/13 09:48:45;;;;;;;11.30;7.03;;;;;;;;;;5051365;28;20201;-71
2024/01/13 09:51:10;;;;;;;12.37;6.73;;;;;;;;;;5051211;28;20181;-71
2024/01/13 09:53:40;;;;;;;12.67;7.27;;;;;;;;;;5047860;28;20235;-69
2024/01/13 09:56:16;;;;;;;12.17;6.73;;;;;;;;;;5032235;28;20212;-70
2024/01/13 09:58:42;;;;;;;15.97;8.07;;;;;;;;;;5049079;28;20184;-70
2024/01/13 10:01:07;;;;;;;12.47;6.83;;;;;;;;;;5050556;28;20197;-71
2024/01/13 10:03:32;;;;;;;13.17;7.77;;;;;;;;;;5050769;28;20212;-70
2024/01/13 10:05:59;;;;;;;12.97;7.07;;;;;;;;;;5049701;28;20570;-70
2024/01/13 10:08:31;;;;;;;12.07;7.60;;;;;;;;;;5050448;28;20194;-71
2024/01/13 10:10:56;;;;;;;13.93;7.80;;;;;;;;;;5046745;28;20173;-70
2024/01/13 10:13:25;;;;;;;14.77;7.67;;;;;;;;;;5050322;28;20169;-71
2024/01/13 10:15:50;;;;;;;15.33;8.33;;;;;;;;;;5050686;28;20303;-71
2024/01/13 10:18:15;;;;;;;14.00;9.10;;;;;;;;;;5050057;28;20260;-70
2024/01/13 10:20:40;;;;;;;15.80;9.60;;;;;;;;;;5050200;28;20269;-70
2024/01/13 10:23:05;;;;;;;18.17;10.17;;;;;;;;;;5049173;28;20213;-71
2024/01/13 10:25:31;;;;;;;18.47;10.17;;;;;;;;;;5048970;28;20197;-70
2024/01/13 10:27:56;;;;;;;17.20;10.20;;;;;;;;;;5049739;28;20221;-71
2024/01/13 10:30:22;;;;;;;18.73;11.13;;;;;;;;;;5047071;28;20173;-71
2024/01/13 10:32:47;;;;;;;22.50;12.57;;;;;;;;;;5055365;28;21491;-71
2024/01/13 10:35:17;;;;;;;21.53;12.37;;;;;;;;;;5047361;28;20201;-71
2024/01/13 10:37:42;;;;;;;24.40;13.00;;;;;;;;;;5034197;28;20185;-71
2024/01/13 10:40:08;;;;;;;22.87;11.80;;;;;;;;;;5050189;28;20740;-71
2024/01/13 10:42:37;;;;;;;20.70;11.23;;;;;;;;;;5048446;28;20205;-71
2024/01/13 10:45:06;;;;;;;21.90;12.03;;;;;;;;;;5030541;28;20197;-71
2024/01/13 10:47:32;;;;;;;21.20;12.37;;;;;;;;;;5052248;28;20212;-71
2024/01/13 10:50:00;;;;;;;23.73;12.13;;;;;;;;;;5053265;28;20181;-70
2024/01/13 10:52:41;;;;;;;19.10;12.33;;;;;;;;;;5051111;28;20190;-70
2024/01/13 10:55:06;;;;;;;22.27;11.77;;;;;;;;;;5051709;28;20284;-71
2024/01/13 10:57:33;;;;;;;26.77;13.43;;;;;;;;;;5049405;28;20631;-71
2024/01/13 10:59:59;;;;;;;23.87;13.17;;;;;;;;;;5036526;28;20177;-71
2024/01/13 11:02:25;;;;;;;27.50;14.23;;;;;;;;;;5053985;28;20356;-71
2024/01/13 11:04:51;;;;;;;26.27;14.30;;;;;;;;;;5053916;28;20189;-71
2024/01/13 11:07:16;;;;;;;27.57;15.63;;;;;;;;;;5034894;28;20228;-71
2024/01/13 11:09:42;;;;;;;28.33;15.17;;;;;;;;;;5051856;28;20556;-71
2024/01/13 11:12:30;;;;;;;32.73;17.00;;;;;;;;;;5053526;28;20174;-71
2024/01/13 11:14:55;;;;;;;30.63;16.30;;;;;;;;;;5048631;28;20296;-72
2024/01/13 11:17:20;;;;;;;30.17;16.27;;;;;;;;;;5053035;28;20716;-71
2024/01/13 11:19:46;;;;;;;31.60;16.27;;;;;;;;;;5052938;28;20178;-71
2024/01/13 11:22:31;;;;;;;32.90;15.90;;;;;;;;;;5053114;28;20232;-71
2024/01/13 11:24:56;;;;;;;32.20;16.97;;;;;;;;;;5030851;28;20203;-70
2024/01/13 11:27:21;;;;;;;30.13;15.90;;;;;;;;;;5052760;28;20644;-69
2024/01/13 11:29:47;;;;;;;30.40;16.77;;;;;;;;;;5053210;28;21207;-70
2024/01/13 11:32:12;;;;;;;29.77;16.43;;;;;;;;;;5052539;28;20559;-71
2024/01/13 11:34:39;;;;;;;35.97;17.30;;;;;;;;;;5048609;28;20178;-70
2024/01/13 11:37:04;;;;;;;29.37;15.63;;;;;;;;;;5033577;28;20268;-70
2024/01/13 11:39:29;;;;;;;32.80;17.10;;;;;;;;;;5051890;28;20315;-70
2024/01/13 11:41:55;;;;;;;36.00;19.17;;;;;;;;;;5049218;28;20322;-70
2024/01/13 11:44:25;;;;;;;33.73;18.50;;;;;;;;;;5051917;28;20527;-70
2024/01/13 11:47:06;;;;;;;33.43;16.63;;;;;;;;;;5051595;28;20174;-69
2024/01/13 11:49:32;;;;;;;32.97;18.00;;;;;;;;;;5054763;28;20181;-70
2024/01/13 11:51:58;;;;;;;30.90;16.83;;;;;;;;;;5052302;28;20177;-71
2024/01/13 11:54:24;;;;;;;27.43;15.20;;;;;;;;;;5052450;28;20189;-69
2024/01/13 11:56:49;;;;;;;26.33;16.53;;;;;;;;;;5050347;28;20181;-71
2024/01/13 11:59:15;;;;;;;30.03;16.10;;;;;;;;;;5034605;28;20574;-70
2024/01/13 12:01:40;;;;;;;29.77;16.87;;;;;;;;;;5034035;28;20263;-71
2024/01/13 12:04:05;;;;;;;32.10;18.40;;;;;;;;;;5034282;28;20315;-71
2024/01/13 12:06:31;;;;;;;32.63;17.67;;;;;;;;;;5033708;28;20194;-71
2024/01/13 12:08:56;;;;;;;31.63;17.63;;;;;;;;;;5051034;28;20174;-70
2024/01/13 12:11:22;;;;;;;37.07;20.57;;;;;;;;;;5050185;28;20611;-71
2024/01/13 12:13:47;;;;;;;34.77;18.40;;;;;;;;;;5050651;28;20248;-70
2024/01/13 12:16:12;;;;;;;35.40;19.07;;;;;;;;;;5050466;28;20207;-70
2024/01/13 12:18:37;;;;;;;38.33;18.53;;;;;;;;;;5047848;28;20173;-70
2024/01/13 12:21:03;;;;;;;37.97;20.57;;;;;;;;;;5051938;28;20197;-70
2024/01/13 12:23:29;;;;;;;35.60;19.33;;;;;;;;;;5051049;28;20237;-71
2024/01/13 12:25:54;;;;;;;38.13;19.93;;;;;;;;;;5051559;28;20642;-71
2024/01/13 12:28:20;;;;;;;40.13;21.47;;;;;;;;;;5052227;28;20178;-70
2024/01/13 12:30:48;;;;;;;41.43;19.57;;;;;;;;;;5050788;28;20177;-71
2024/01/13 12:33:13;;;;;;;39.93;20.37;;;;;;;;;;5052005;28;20196;-71
2024/01/13 12:35:39;;;;;;;36.70;20.30;;;;;;;;;;5049397;28;20205;-71
2024/01/13 12:38:07;;;;;;;33.27;18.53;;;;;;;;;;5032962;28;20578;-71
2024/01/13 12:40:33;;;;;;;38.53;19.67;;;;;;;;;;5051095;28;20221;-71
2024/01/13 12:42:58;;;;;;;38.57;17.80;;;;;;;;;;5051795;28;20672;-69
2024/01/13 12:45:26;;;;;;;37.97;18.90;;;;;;;;;;5050161;28;20198;-71
2024/01/13 12:47:52;;;;;;;38.93;19.80;;;;;;;;;;5051260;28;20591;-71
2024/01/13 12:50:17;;;;;;;38.13;18.93;;;;;;;;;;5050523;28;20256;-71
2024/01/13 12:52:42;;;;;;;35.07;17.13;;;;;;;;;;5051550;28;20322;-71
2024/01/13 12:55:07;;;;;;;38.20;18.33;;;;;;;;;;5050652;28;20198;-71
2024/01/13 12:57:33;;;;;;;34.93;16.73;;;;;;;;;;5049748;28;20581;-71
2024/01/13 12:59:58;;;;;;;31.13;16.03;;;;;;;;;;5051575;28;20691;-70
2024/01/13 13:02:24;;;;;;;39.07;18.67;;;;;;;;;;5053298;28;20674;-69
2024/01/13 13:04:49;;;;;;;34.40;16.43;;;;;;;;;;5065107;28;20269;-69
2024/01/13 13:07:16;;;;;;;38.50;17.70;;;;;;;;;;5058149;28;20178;-69
2024/01/13 13:09:41;;;;;;;39.80;18.10;;;;;;;;;;5032717;28;20184;-70
2024/01/13 13:12:07;;;;;;;32.00;16.73;;;;;;;;;;5051441;28;20642;-70
2024/01/13 13:14:32;;;;;;;34.80;16.23;;;;;;;;;;5032811;28;20217;-71
2024/01/13 13:16:58;;;;;;;33.27;17.70;;;;;;;;;;5031519;28;20182;-71
2024/01/13 13:19:25;;;;;;;39.10;17.33;;;;;;;;;;5051109;28;20239;-68
2024/01/13 13:21:50;;;;;;;32.50;16.77;;;;;;;;;;5049573;28;20178;-70
2024/01/13 13:24:15;;;;;;;36.40;17.50;;;;;;;;;;5048083;28;20632;-68
2024/01/13 13:26:41;;;;;;;31.33;17.10;;;;;;;;;;5048414;28;20196;-69
2024/01/13 13:29:06;;;;;;;35.50;16.97;;;;;;;;;;5048013;28;20235;-70
2024/01/13 13:31:32;;;;;;;31.13;16.53;;;;;;;;;;5048679;28;20184;-70
2024/01/13 13:33:57;;;;;;;33.73;15.80;;;;;;;;;;5049496;28;20217;-70
2024/01/13 13:36:22;;;;;;;29.60;16.83;;;;;;;;;;5048978;28;20292;-70
2024/01/13 13:38:47;;;;;;;30.47;16.30;;;;;;;;;;5050669;28;20190;-71
2024/01/13 13:41:13;;;;;;;34.47;15.97;;;;;;;;;;5052060;28;20178;-70
2024/01/13 13:43:38;;;;;;;37.53;16.93;;;;;;;;;;5049655;28;20262;-71
2024/01/13 13:46:04;;;;;;;33.00;16.63;;;;;;;;;;5050640;28;20204;-71
2024/01/13 13:48:33;;;;;;;32.93;16.27;;;;;;;;;;5049636;28;20668;-71
2024/01/13 13:50:58;;;;;;;29.83;15.03;;;;;;;;;;5032051;28;20183;-70
2024/01/13 13:53:23;;;;;;;31.43;15.73;;;;;;;;;;5051280;28;20182;-71
2024/01/13 13:55:48;;;;;;;30.50;15.77;;;;;;;;;;5032406;28;20211;-70
2024/01/13 13:58:14;;;;;;;31.20;15.73;;;;;;;;;;5036415;28;20191;-69
2024/01/13 14:00:39;;;;;;;33.13;17.50;;;;;;;;;;5052033;28;20183;-71
2024/01/13 14:03:04;;;;;;;30.33;14.63;;;;;;;;;;5048185;28;20219;-70
2024/01/13 14:05:29;;;;;;;30.33;15.67;;;;;;;;;;5050080;28;20193;-70
2024/01/13 14:07:55;;;;;;;34.57;17.37;;;;;;;;;;5049936;28;20530;-71
2024/01/13 14:10:21;;;;;;;29.63;14.57;;;;;;;;;;5049251;28;20182;-70
2024/01/13 14:12:46;;;;;;;33.67;16.13;;;;;;;;;;5048343;28;20303;-72
2024/01/13 14:15:11;;;;;;;35.87;17.37;;;;;;;;;;5066319;22;20238;-69